Terminal Aerodrome Forecast
Issued by NWS

Home | Current Version | Previous Version | Text Only | Print | Product List | Glossary On
Versions: 1 2 3 4 5 6 7 8 9 10 11 12 13 14 15 16 17 18
000
FTUS43 KDLH 021700
TAFBRD
TAF
KBRD 021739Z 0218/0318 21012G20KT P6SM SKC
     FM030000 16006KT P6SM SCT100
     FM030900 19006KT P6SM VCSH BKN080
     FM031300 20008KT P6SM SCT120=

USA.gov is the U.S. government's official web portal to all federal, state and local government web resources and services.